Time;durP1;ratioP1;P1;durP2;ratioP2;P2;SDS_P1;SDS_P2;PMS_P1;PMS_P2;Temp;Humidity;BMP_temperature;BMP_pressure;BME280_temperature;BME280_humidity;BME280_pressure;Samples;Min_cycle;Max_cycle;Signal;HPM_P1;HPM_P2
2021/11/25 00:01:57;;;;;;;21.47;13.07;;;;;;;-3.23;88.54;97600.53;6136598;29;20199;-70
2021/11/25 00:05:00;;;;;;;19.10;12.50;;;;;;;-3.26;88.50;97595.44;6123623;29;20309;-70
2021/11/25 00:08:02;;;;;;;17.80;11.60;;;;;;;-3.35;88.88;97591.38;6138611;29;20191;-70
2021/11/25 00:11:04;;;;;;;17.33;11.77;;;;;;;-3.41;88.32;97596.72;6123323;29;20201;-70
2021/11/25 00:14:07;;;;;;;21.07;12.80;;;;;;;-3.50;88.33;97576.34;6123590;29;20614;-69
2021/11/25 00:17:09;;;;;;;19.80;13.27;;;;;;;-3.47;88.70;97571.06;6122988;29;20694;-70
2021/11/25 00:20:12;;;;;;;23.50;14.30;;;;;;;-3.49;89.00;97568.53;6123183;29;20571;-70
2021/11/25 00:23:14;;;;;;;21.30;12.97;;;;;;;-3.52;88.09;97560.88;6121432;29;20232;-70
2021/11/25 00:26:17;;;;;;;21.67;13.40;;;;;;;-3.54;88.15;97556.66;6122025;29;20221;-70
2021/11/25 00:29:19;;;;;;;19.87;13.17;;;;;;;-3.58;88.36;97555.03;6107137;29;20592;-70
2021/11/25 00:32:22;;;;;;;22.53;14.97;;;;;;;-3.54;88.36;97547.19;6122333;29;20227;-70
2021/11/25 00:35:24;;;;;;;25.17;15.70;;;;;;;-3.42;88.30;97541.69;6123172;29;20297;-70
2021/11/25 00:38:26;;;;;;;22.23;14.90;;;;;;;-3.38;88.04;97529.53;6122036;29;20278;-70
2021/11/25 00:41:28;;;;;;;23.30;14.40;;;;;;;-3.41;88.14;97530.50;6122732;29;20290;-70
2021/11/25 00:44:31;;;;;;;23.90;15.50;;;;;;;-3.44;88.71;97529.72;6123588;29;20294;-70
2021/11/25 00:47:33;;;;;;;24.20;15.83;;;;;;;-3.40;88.66;97532.19;6122333;29;20226;-70
2021/11/25 00:50:36;;;;;;;24.93;14.87;;;;;;;-3.44;88.05;97532.31;6122934;29;20196;-70
2021/11/25 00:53:38;;;;;;;26.37;16.47;;;;;;;-3.41;88.90;97527.06;6121222;29;20195;-70
2021/11/25 00:56:40;;;;;;;23.77;16.43;;;;;;;-3.42;88.24;97525.38;6121435;29;20191;-70
2021/11/25 00:59:42;;;;;;;24.87;15.07;;;;;;;-3.39;88.43;97526.13;6122908;29;20187;-70
2021/11/25 01:02:45;;;;;;;25.03;16.87;;;;;;;-3.40;88.65;97508.13;6122420;29;20220;-70
2021/11/25 01:05:48;;;;;;;24.13;14.80;;;;;;;-3.40;88.56;97511.56;6122886;29;20223;-70
2021/11/25 01:08:50;;;;;;;26.70;16.87;;;;;;;-3.48;88.74;97513.47;6122435;29;20655;-70
2021/11/25 01:12:12;;;;;;;25.00;15.67;;;;;;;-3.49;89.29;97516.09;6121398;29;20196;-70
2021/11/25 01:15:17;;;;;;;25.30;16.37;;;;;;;-3.49;88.61;97500.63;6122843;29;20663;-70
2021/11/25 01:18:20;;;;;;;25.60;16.37;;;;;;;-3.53;88.37;97506.75;6122955;29;20211;-70
2021/11/25 01:21:23;;;;;;;27.70;15.83;;;;;;;-3.53;88.69;97502.47;6120755;29;20207;-70
2021/11/25 01:24:26;;;;;;;25.27;15.07;;;;;;;-3.60;88.60;97513.84;6121225;29;20291;-70
2021/11/25 01:27:28;;;;;;;27.53;15.57;;;;;;;-3.58;88.91;97500.88;6117278;29;20749;-70
2021/11/25 01:30:30;;;;;;;25.80;15.20;;;;;;;-3.56;88.36;97506.84;6121619;29;20237;-70
2021/11/25 01:33:32;;;;;;;26.30;16.30;;;;;;;-3.56;89.05;97481.91;6122532;29;20696;-70
2021/11/25 01:36:35;;;;;;;27.87;16.37;;;;;;;-3.60;88.81;97479.47;6121017;29;20712;-70
2021/11/25 01:39:37;;;;;;;23.07;14.83;;;;;;;-3.62;88.01;97478.66;6122035;29;20315;-71
2021/11/25 01:42:41;;;;;;;26.00;15.23;;;;;;;-3.63;89.45;97467.50;6122255;29;20226;-70
2021/11/25 01:45:43;;;;;;;24.67;16.03;;;;;;;-3.55;88.42;97465.53;6120537;29;20218;-70
2021/11/25 01:48:47;;;;;;;26.70;17.37;;;;;;;-3.48;88.49;97461.88;6122587;29;20540;-70
2021/11/25 01:51:49;;;;;;;34.33;20.30;;;;;;;-3.38;89.10;97459.91;6125745;29;20631;-70
2021/11/25 01:54:51;;;;;;;32.67;18.73;;;;;;;-3.26;88.67;97466.44;6126981;29;20176;-70
2021/11/25 01:57:54;;;;;;;27.63;17.37;;;;;;;-3.27;89.25;97463.00;6126439;29;20199;-70
2021/11/25 02:00:57;;;;;;;29.87;17.43;;;;;;;-3.24;88.93;97444.03;6125650;29;20230;-70
2021/11/25 02:04:02;;;;;;;28.20;17.60;;;;;;;-3.25;88.76;97453.50;6126485;29;20707;-70
2021/11/25 02:07:04;;;;;;;25.73;17.00;;;;;;;-3.29;89.07;97454.47;6125646;29;20755;-70
2021/11/25 02:10:08;;;;;;;27.10;16.67;;;;;;;-3.31;89.33;97453.69;6126137;29;20188;-70
2021/11/25 02:13:13;;;;;;;27.37;18.20;;;;;;;-3.33;88.63;97449.47;6124694;29;20703;-70
2021/11/25 02:16:15;;;;;;;28.03;16.90;;;;;;;-3.21;89.48;97449.94;6125797;29;20236;-70
2021/11/25 02:19:18;;;;;;;28.17;17.27;;;;;;;-3.18;89.70;97438.66;6125974;29;20222;-71
2021/11/25 02:22:20;;;;;;;26.47;17.83;;;;;;;-3.19;89.06;97426.66;6123752;29;20655;-70
2021/11/25 02:25:22;;;;;;;27.70;17.87;;;;;;;-3.19;89.40;97422.34;6125980;29;20218;-69
2021/11/25 02:28:28;;;;;;;29.87;18.70;;;;;;;-3.16;89.24;97419.69;6125806;29;20199;-70
2021/11/25 02:31:30;;;;;;;33.80;20.50;;;;;;;-2.88;89.68;97418.81;6124623;29;20634;-70
2021/11/25 02:34:33;;;;;;;38.50;21.73;;;;;;;-2.59;89.57;97420.50;6125696;29;20672;-70
2021/11/25 02:37:35;;;;;;;32.07;20.57;;;;;;;-2.58;89.33;97411.84;6124048;29;20692;-69
2021/11/25 02:40:43;;;;;;;33.90;21.37;;;;;;;-2.53;89.17;97402.22;6125337;29;20596;-70
2021/11/25 02:43:46;;;;;;;34.17;21.03;;;;;;;-2.44;89.00;97410.50;6124966;29;20191;-70
2021/11/25 02:46:51;;;;;;;34.70;20.77;;;;;;;-2.30;88.99;97390.22;6124192;29;20638;-70
2021/11/25 02:49:53;;;;;;;33.87;21.37;;;;;;;-2.12;89.15;97401.66;6125121;29;20257;-70
2021/11/25 02:52:55;;;;;;;36.60;21.40;;;;;;;-2.04;88.93;97393.63;6123478;29;20675;-70
2021/11/25 02:56:04;;;;;;;29.50;20.53;;;;;;;-2.06;88.79;97395.44;6125328;29;20617;-70
2021/11/25 02:59:06;;;;;;;34.93;21.40;;;;;;;-1.75;88.31;97390.88;6124675;29;20194;-70
2021/11/25 03:02:09;;;;;;;32.93;20.37;;;;;;;-1.67;87.76;97380.22;6122732;29;20208;-70
2021/11/25 03:05:14;;;;;;;31.63;19.00;;;;;;;-1.65;87.73;97371.53;6124818;29;20213;-70
2021/11/25 03:08:19;;;;;;;26.30;17.97;;;;;;;-1.77;87.52;97353.00;6124653;29;20199;-70
2021/11/25 03:11:25;;;;;;;26.93;18.23;;;;;;;-1.81;87.52;97359.22;6125159;29;20203;-70
2021/11/25 03:14:27;;;;;;;30.00;19.33;;;;;;;-1.73;87.96;97359.78;6124508;29;20199;-70
2021/11/25 03:17:29;;;;;;;29.00;18.80;;;;;;;-1.65;87.63;97361.19;6124480;29;20199;-70
2021/11/25 03:20:32;;;;;;;29.27;18.50;;;;;;;-1.54;87.01;97359.03;6123092;29;20721;-70
2021/11/25 03:23:37;;;;;;;28.70;18.73;;;;;;;-1.23;86.33;97365.63;6124381;29;20203;-70
2021/11/25 03:26:39;;;;;;;28.57;17.90;;;;;;;-1.32;86.04;97374.59;6124652;29;20214;-70
2021/11/25 03:29:41;;;;;;;30.13;17.80;;;;;;;-1.35;86.28;97369.53;6122215;29;20714;-70
2021/11/25 03:32:44;;;;;;;25.57;16.70;;;;;;;-1.40;86.45;97371.47;6124076;29;20331;-70
2021/11/25 03:35:46;;;;;;;25.23;16.50;;;;;;;-1.44;86.16;97372.47;6124076;29;20210;-70
2021/11/25 03:38:49;;;;;;;25.93;16.50;;;;;;;-1.21;85.65;97362.09;6124142;29;20290;-71
2021/11/25 03:41:51;;;;;;;26.47;17.50;;;;;;;-1.11;85.32;97378.13;6117099;29;20204;-70
2021/11/25 03:44:54;;;;;;;23.20;16.53;;;;;;;-1.15;85.44;97366.19;6123819;29;20214;-70
2021/11/25 03:47:56;;;;;;;24.77;16.80;;;;;;;-1.16;85.50;97352.38;6123821;29;20576;-69
2021/11/25 03:51:01;;;;;;;26.30;17.10;;;;;;;-1.18;85.26;97351.59;6123193;29;20671;-70
2021/11/25 03:54:05;;;;;;;27.23;18.07;;;;;;;-1.10;84.90;97353.91;6122907;29;20203;-70
2021/11/25 03:57:08;;;;;;;22.77;14.87;;;;;;;-1.17;85.30;97357.63;6122692;29;20191;-70
2021/11/25 04:00:12;;;;;;;27.43;17.30;;;;;;;-1.27;85.24;97354.53;6123292;29;20274;-70
2021/11/25 04:03:15;;;;;;;25.87;16.93;;;;;;;-1.34;85.19;97347.94;6123818;29;20223;-70
2021/11/25 04:06:17;;;;;;;24.60;17.33;;;;;;;-1.43;85.23;97340.50;6123387;29;20285;-71
2021/11/25 04:09:19;;;;;;;25.77;17.23;;;;;;;-1.40;85.59;97343.00;6123439;29;20196;-70
2021/11/25 04:12:21;;;;;;;23.17;16.17;;;;;;;-1.40;85.24;97345.59;6123113;29;20203;-70
2021/11/25 04:15:24;;;;;;;31.00;19.43;;;;;;;-1.32;85.88;97329.75;6123723;29;20594;-70
2021/11/25 04:18:26;;;;;;;27.87;17.83;;;;;;;-1.23;85.36;97327.66;6122118;29;20211;-70
2021/11/25 04:21:29;;;;;;;31.50;18.63;;;;;;;-1.15;84.99;97333.38;6121277;29;20309;-69
2021/11/25 04:24:31;;;;;;;26.87;18.13;;;;;;;-1.09;85.16;97332.25;6122469;29;20203;-70
2021/11/25 04:27:34;;;;;;;28.70;18.37;;;;;;;-0.98;84.66;97331.84;6123310;29;20222;-70
2021/11/25 04:37:00;;;;;;;27.53;18.10;;;;;;;-0.98;84.25;97313.72;6122912;29;20177;-70
2021/11/25 04:40:03;;;;;;;29.37;19.00;;;;;;;-0.98;84.14;97324.06;6122778;29;20200;-70
2021/11/25 04:43:07;;;;;;;27.93;18.40;;;;;;;-0.96;84.59;97317.94;6122707;29;20207;-70
2021/11/25 04:46:09;;;;;;;28.40;17.93;;;;;;;-0.95;84.25;97318.78;6121638;29;20565;-70
2021/11/25 04:49:12;;;;;;;24.47;16.73;;;;;;;-1.08;84.40;97305.47;6121537;29;20574;-70
2021/11/25 04:52:14;;;;;;;26.90;16.73;;;;;;;-1.23;84.51;97304.34;6122423;29;20188;-70
2021/11/25 04:55:17;;;;;;;24.53;15.93;;;;;;;-1.37;84.88;97310.97;6123070;29;20681;-70
2021/11/25 04:58:20;;;;;;;23.60;15.37;;;;;;;-1.50;85.09;97306.25;6122686;29;20281;-70
2021/11/25 05:01:22;;;;;;;32.07;18.73;;;;;;;-1.44;86.09;97291.41;6122194;29;20266;-70
2021/11/25 05:04:24;;;;;;;28.10;18.27;;;;;;;-1.36;85.36;97305.72;6122998;29;20274;-70
2021/11/25 05:07:26;;;;;;;26.67;16.53;;;;;;;-1.44;85.50;97307.78;6123231;29;20207;-70
2021/11/25 05:10:29;;;;;;;28.77;18.13;;;;;;;-1.51;85.75;97296.84;6121199;29;20207;-70
2021/11/25 05:13:31;;;;;;;26.87;17.87;;;;;;;-1.63;85.67;97294.72;6122077;29;20773;-70
2021/11/25 05:16:33;;;;;;;26.33;17.27;;;;;;;-1.71;85.55;97286.41;6121775;29;20803;-70
2021/11/25 05:19:36;;;;;;;26.43;16.57;;;;;;;-1.77;85.88;97285.78;6120970;29;20307;-70
2021/11/25 05:22:38;;;;;;;28.33;18.37;;;;;;;-1.72;86.14;97278.69;6121091;29;20228;-70
2021/11/25 05:25:41;;;;;;;29.70;17.10;;;;;;;-1.78;86.38;97286.66;6124964;29;20294;-69
2021/11/25 05:28:43;;;;;;;26.53;17.67;;;;;;;-1.88;86.05;97271.50;6120755;29;20195;-70
2021/11/25 05:31:45;;;;;;;30.40;18.50;;;;;;;-1.93;86.51;97275.16;6126404;29;20625;-70
2021/11/25 05:34:48;;;;;;;27.50;17.80;;;;;;;-1.90;86.42;97268.13;6102262;29;20662;-69
2021/11/25 05:37:52;;;;;;;28.77;18.10;;;;;;;-1.84;86.99;97263.63;6124489;29;20191;-70
2021/11/25 05:40:54;;;;;;;27.67;18.20;;;;;;;-1.82;86.57;97265.28;6126322;29;20195;-70
2021/11/25 05:43:56;;;;;;;31.90;18.43;;;;;;;-1.91;86.86;97263.03;6126567;29;20759;-69
2021/11/25 05:46:59;;;;;;;25.83;16.67;;;;;;;-1.90;86.88;97257.78;6126794;29;20214;-70
2021/11/25 05:50:05;;;;;;;25.17;16.60;;;;;;;-1.91;86.64;97260.44;6124589;29;20244;-70
2021/11/25 05:53:08;;;;;;;25.27;16.37;;;;;;;-1.96;86.79;97267.53;6127352;29;20530;-70
2021/11/25 05:56:13;;;;;;;31.50;19.00;;;;;;;-1.98;86.94;97266.72;6125165;29;20191;-69
2021/11/25 05:59:16;;;;;;;28.43;17.10;;;;;;;-2.04;86.87;97256.63;6126454;29;20195;-70
2021/11/25 06:02:20;;;;;;;28.30;19.00;;;;;;;-2.00;87.70;97265.97;6126176;29;20188;-70
2021/11/25 06:05:23;;;;;;;25.30;16.23;;;;;;;-2.02;87.40;97258.25;6124788;29;20217;-70
2021/11/25 06:08:26;;;;;;;28.23;17.37;;;;;;;-2.09;87.39;97253.34;6125158;29;20214;-70
2021/11/25 06:11:29;;;;;;;30.00;18.10;;;;;;;-2.02;87.45;97249.66;6125132;29;20581;-70
2021/11/25 06:14:32;;;;;;;26.07;16.80;;;;;;;-2.10;87.21;97254.28;6126406;29;20199;-70
2021/11/25 06:17:34;;;;;;;25.83;16.87;;;;;;;-2.18;87.21;97258.88;6124826;29;20676;-70
2021/11/25 06:20:36;;;;;;;32.97;18.23;;;;;;;-2.16;87.49;97257.06;6124006;29;20203;-69
2021/11/25 06:23:40;;;;;;;30.83;18.87;;;;;;;-2.19;87.37;97252.84;6126004;29;20234;-69
2021/11/25 06:26:44;;;;;;;29.40;19.03;;;;;;;-2.17;87.23;97256.22;6124605;29;20679;-70
2021/11/25 06:29:46;;;;;;;30.37;17.73;;;;;;;-2.19;87.53;97255.44;6125529;29;20242;-70
2021/11/25 06:32:50;;;;;;;29.90;17.87;;;;;;;-2.21;87.35;97253.81;6124155;29;20612;-70
2021/11/25 06:35:52;;;;;;;30.87;18.50;;;;;;;-2.21;87.50;97257.25;6123040;29;20594;-70
2021/11/25 06:38:54;;;;;;;30.17;18.47;;;;;;;-2.18;87.94;97271.78;6125520;29;20195;-70
2021/11/25 06:41:57;;;;;;;32.17;19.57;;;;;;;-2.18;87.38;97269.19;6123876;29;20199;-70
2021/11/25 06:44:59;;;;;;;32.30;18.90;;;;;;;-2.19;87.83;97264.94;6123914;29;20207;-70
2021/11/25 06:48:02;;;;;;;31.43;18.90;;;;;;;-2.23;87.66;97266.81;6123263;29;20699;-70
2021/11/25 06:54:35;;;;;;;31.57;18.30;;;;;;;-2.22;87.46;97270.22;6124597;29;20306;-69
2021/11/25 06:57:38;;;;;;;32.77;19.70;;;;;;;-2.26;87.54;97265.16;6131768;29;20191;-69
2021/11/25 07:00:40;;;;;;;29.67;17.80;;;;;;;-2.28;87.89;97254.03;6126162;28;20204;-69
2021/11/25 07:03:43;;;;;;;28.33;17.80;;;;;;;-2.33;87.77;97248.19;6123749;29;20227;-69
2021/11/25 07:06:46;;;;;;;33.13;19.47;;;;;;;-2.30;87.88;97249.84;6124602;29;20282;-70
2021/11/25 07:09:48;;;;;;;33.70;18.87;;;;;;;-2.31;87.73;97246.41;6131377;29;20293;-70
2021/11/25 07:12:50;;;;;;;36.13;18.47;;;;;;;-2.24;87.84;97237.53;6138539;29;20278;-69
2021/11/25 07:15:52;;;;;;;33.77;18.27;;;;;;;-2.21;87.82;97240.91;6124470;29;20199;-69
2021/11/25 07:18:55;;;;;;;43.93;20.80;;;;;;;-2.21;87.58;97246.06;6122363;29;20294;-69
2021/11/25 07:21:57;;;;;;;27.83;16.93;;;;;;;-2.24;87.93;97240.13;6122780;29;20223;-69
2021/11/25 07:25:00;;;;;;;33.63;18.47;;;;;;;-2.19;87.78;97241.66;6123421;29;20191;-69
2021/11/25 07:28:02;;;;;;;35.70;20.00;;;;;;;-2.17;87.56;97240.72;6122850;29;20302;-69
2021/11/25 07:31:04;;;;;;;31.93;18.07;;;;;;;-2.10;87.44;97231.84;6124023;29;20210;-70
2021/11/25 07:34:06;;;;;;;29.23;17.90;;;;;;;-2.05;87.93;97232.50;6124173;29;20278;-69
2021/11/25 07:37:08;;;;;;;29.23;16.60;;;;;;;-2.01;87.66;97231.50;6123815;29;20271;-70
2021/11/25 07:40:10;;;;;;;28.63;17.37;;;;;;;-1.96;87.57;97239.06;6123909;29;20663;-69
2021/11/25 07:43:12;;;;;;;32.63;19.03;;;;;;;-1.86;87.74;97237.81;6123124;29;20659;-70
2021/11/25 07:46:14;;;;;;;29.97;17.77;;;;;;;-1.86;87.83;97236.09;6122623;29;20352;-71
2021/11/25 07:49:16;;;;;;;33.07;18.30;;;;;;;-1.79;87.86;97236.69;6107070;29;20207;-70
2021/11/25 07:52:19;;;;;;;28.97;17.80;;;;;;;-1.71;87.83;97224.31;6105894;29;20275;-69
2021/11/25 07:55:21;;;;;;;33.23;18.73;;;;;;;-1.67;87.74;97219.84;6123693;29;20280;-69
2021/11/25 07:58:23;;;;;;;32.33;18.20;;;;;;;-1.58;88.10;97219.50;6123369;29;20222;-69
2021/11/25 08:01:25;;;;;;;32.53;18.93;;;;;;;-1.50;87.89;97214.88;6123321;29;20235;-69
2021/11/25 08:04:28;;;;;;;33.63;18.40;;;;;;;-1.31;87.88;97204.63;6123500;29;20295;-71
2021/11/25 08:07:30;;;;;;;34.20;18.80;;;;;;;-1.26;87.57;97203.50;6106368;29;20235;-70
2021/11/25 08:10:32;;;;;;;31.80;19.13;;;;;;;-0.95;87.67;97203.09;6123518;29;20195;-69
2021/11/25 08:13:35;;;;;;;29.57;18.10;;;;;;;-0.89;87.38;97189.84;6122750;29;20214;-69
2021/11/25 08:16:38;;;;;;;25.63;16.13;;;;;;;-0.87;86.80;97188.06;6124198;29;20198;-70
2021/11/25 08:19:42;;;;;;;26.00;16.47;;;;;;;-0.85;86.82;97185.41;6123011;29;20204;-69
2021/11/25 08:22:44;;;;;;;26.53;17.43;;;;;;;-0.81;86.41;97190.41;6123273;29;20637;-70
2021/11/25 08:25:46;;;;;;;23.80;15.80;;;;;;;-0.74;86.57;97185.78;6123445;29;20315;-70
2021/11/25 08:28:48;;;;;;;31.50;18.00;;;;;;;-0.61;86.68;97186.09;6122704;29;20286;-69
2021/11/25 08:31:51;;;;;;;28.83;18.00;;;;;;;-0.46;86.08;97181.06;6121761;29;20281;-69
2021/11/25 08:34:54;;;;;;;26.83;16.43;;;;;;;-0.30;85.45;97183.00;6122784;29;20282;-69
2021/11/25 08:37:59;;;;;;;28.40;17.77;;;;;;;-0.08;85.08;97179.31;6121829;29;20199;-69
2021/11/25 08:41:01;;;;;;;25.27;16.50;;;;;;;0.11;84.22;97184.50;6122895;29;20644;-69
2021/11/25 08:44:04;;;;;;;25.47;15.90;;;;;;;0.34;83.59;97183.41;6113675;29;20215;-69
2021/11/25 08:47:06;;;;;;;23.93;15.17;;;;;;;0.53;83.00;97173.00;6121881;29;20222;-70
2021/11/25 08:50:10;;;;;;;25.60;16.40;;;;;;;0.73;81.73;97175.47;6121309;29;20206;-70
2021/11/25 08:53:13;;;;;;;22.67;15.00;;;;;;;1.00;80.45;97173.22;6120944;29;20246;-69
2021/11/25 08:56:15;;;;;;;24.50;14.50;;;;;;;1.16;80.15;97162.91;6121576;29;20202;-69
2021/11/25 08:59:18;;;;;;;26.27;16.57;;;;;;;1.36;79.81;97158.38;6123853;29;20654;-71
2021/11/25 09:02:20;;;;;;;20.37;14.33;;;;;;;1.58;78.02;97158.09;6126556;29;20199;-70
2021/11/25 09:05:23;;;;;;;19.67;13.43;;;;;;;1.85;77.49;97153.19;6127278;29;20674;-70
2021/11/25 09:08:25;;;;;;;18.27;12.93;;;;;;;2.10;77.35;97153.50;6126562;29;20221;-70
2021/11/25 09:11:27;;;;;;;18.13;12.80;;;;;;;2.33;77.04;97140.97;6125672;29;20640;-70
2021/11/25 09:14:29;;;;;;;21.20;14.40;;;;;;;2.46;75.10;97135.00;6127660;29;20198;-70
2021/11/25 09:17:37;;;;;;;19.07;13.67;;;;;;;2.69;74.17;97140.69;6127458;29;20188;-69
2021/11/25 09:20:57;;;;;;;22.60;14.63;;;;;;;2.87;72.00;97139.59;6126525;29;20236;-70
2021/11/25 09:24:07;;;;;;;21.87;13.83;;;;;;;3.03;71.65;97145.59;6127121;29;20258;-70
2021/11/25 09:27:09;;;;;;;17.80;12.80;;;;;;;3.24;72.42;97146.94;6126597;29;20223;-71
2021/11/25 09:30:11;;;;;;;18.27;13.20;;;;;;;3.40;72.72;97138.16;6127290;29;20226;-70
2021/11/25 09:33:13;;;;;;;22.10;14.03;;;;;;;3.43;70.30;97125.81;6126766;29;20215;-70
2021/11/25 09:36:15;;;;;;;21.30;14.10;;;;;;;3.67;70.17;97129.53;6125206;29;20327;-70
2021/11/25 09:39:18;;;;;;;20.27;13.23;;;;;;;3.77;66.90;97124.59;6125821;29;20614;-70
2021/11/25 09:42:20;;;;;;;19.37;12.97;;;;;;;3.87;68.37;97117.84;6125917;29;20204;-70
2021/11/25 09:45:23;;;;;;;21.17;14.23;;;;;;;4.05;67.96;97121.06;6126917;29;20192;-70
2021/11/25 09:48:27;;;;;;;19.90;12.97;;;;;;;4.22;66.20;97117.38;6126089;29;20247;-70
2021/11/25 09:51:29;;;;;;;17.10;12.93;;;;;;;4.18;67.18;97116.75;6126150;29;20284;-70
2021/11/25 09:54:31;;;;;;;20.03;13.57;;;;;;;4.44;67.65;97107.25;6126291;29;20343;-70
2021/11/25 09:57:35;;;;;;;20.93;13.67;;;;;;;4.42;66.78;97088.19;6125972;29;20292;-70
2021/11/25 10:00:37;;;;;;;19.67;13.63;;;;;;;4.51;65.03;97089.38;6126499;29;20554;-69
2021/11/25 10:03:44;;;;;;;22.10;14.50;;;;;;;4.51;65.84;97092.81;6109178;29;20201;-69
2021/11/25 10:06:55;;;;;;;20.30;14.70;;;;;;;4.60;66.05;97099.22;6126060;29;20294;-69
2021/11/25 10:09:58;;;;;;;21.63;14.60;;;;;;;4.58;66.22;97068.00;6124865;29;20209;-69
2021/11/25 10:13:17;;;;;;;23.63;15.73;;;;;;;4.74;66.28;97058.19;6125715;29;20243;-69
2021/11/25 10:16:42;;;;;;;20.37;14.40;;;;;;;4.77;65.81;97063.22;6125918;29;20233;-69
2021/11/25 10:20:05;;;;;;;20.00;14.50;;;;;;;4.48;65.25;97056.47;6124567;29;20218;-69
2021/11/25 10:23:29;;;;;;;22.97;16.07;;;;;;;4.57;64.90;97061.09;6125859;29;20195;-71
2021/11/25 10:26:33;;;;;;;22.80;15.80;;;;;;;4.43;65.49;97055.91;6125133;29;20242;-69
2021/11/25 10:29:35;;;;;;;22.60;15.77;;;;;;;4.50;64.76;97051.13;6125799;29;20598;-69
2021/11/25 10:32:37;;;;;;;20.83;14.60;;;;;;;4.51;65.84;97053.63;6125299;29;20333;-69
2021/11/25 10:39:06;;;;;;;22.33;15.53;;;;;;;4.77;64.41;97054.53;6125549;29;20273;-69
2021/11/25 10:42:09;;;;;;;22.93;15.57;;;;;;;4.81;65.02;97046.38;6124550;29;20631;-70
2021/11/25 10:45:14;;;;;;;20.57;15.20;;;;;;;4.71;63.52;97057.53;6124220;29;20192;-69
2021/11/25 10:48:51;;;;;;;19.40;14.27;;;;;;;4.74;63.95;97047.72;6125118;29;20306;-69
2021/11/25 10:52:23;;;;;;;19.77;13.73;;;;;;;4.95;64.62;97032.38;6057427;29;20237;-69
2021/11/25 10:55:25;;;;;;;20.60;14.17;;;;;;;5.17;63.89;97021.28;6074625;29;20299;-69
2021/11/25 10:58:27;;;;;;;22.00;14.13;;;;;;;5.34;62.81;97018.31;6075182;29;20236;-69
2021/11/25 11:01:40;;;;;;;20.07;13.30;;;;;;;5.37;60.83;97007.66;6074608;29;20272;-70
2021/11/25 11:04:45;;;;;;;18.53;13.10;;;;;;;5.56;61.99;97007.19;6074313;29;20204;-69
2021/11/25 11:07:47;;;;;;;20.40;14.20;;;;;;;5.66;62.01;97002.13;6051381;29;20316;-69
2021/11/25 11:11:05;;;;;;;18.13;12.73;;;;;;;5.28;60.27;97007.47;6040411;29;20364;-69
2021/11/25 11:14:17;;;;;;;19.50;13.30;;;;;;;5.41;61.29;97005.63;6063207;29;20217;-69
2021/11/25 11:17:58;;;;;;;21.10;13.80;;;;;;;5.51;61.03;96996.19;6058567;29;20208;-69
2021/11/25 11:20:51;;;;;;;19.43;13.80;;;;;;;5.70;61.27;97000.94;6073161;29;20284;-69
2021/11/25 11:23:56;;;;;;;17.57;12.70;;;;;;;5.82;60.84;96994.84;6074056;29;20244;-69
2021/11/25 11:27:05;;;;;;;19.10;13.57;;;;;;;5.90;61.06;97000.38;6082313;29;20306;-69
2021/11/25 11:30:07;;;;;;;20.60;13.17;;;;;;;5.98;60.23;96992.00;6123011;29;20195;-69
2021/11/25 11:33:14;;;;;;;19.90;13.80;;;;;;;6.04;60.93;96992.38;6123594;29;20667;-69
2021/11/25 11:36:20;;;;;;;20.10;13.90;;;;;;;6.00;60.98;96983.03;6124054;29;20206;-69
2021/11/25 11:39:25;;;;;;;20.43;14.93;;;;;;;6.02;60.36;96967.22;6123834;29;20607;-69
2021/11/25 11:42:28;;;;;;;19.23;14.77;;;;;;;6.14;61.31;96956.69;6136939;29;20702;-69
2021/11/25 11:45:33;;;;;;;19.93;13.37;;;;;;;6.19;59.45;96944.06;6133933;28;20200;-69
2021/11/25 11:48:36;;;;;;;18.17;13.13;;;;;;;6.13;59.63;96938.47;6123371;29;20224;-70
2021/11/25 11:51:38;;;;;;;19.70;14.57;;;;;;;6.24;60.19;96935.88;6123267;29;20311;-69
2021/11/25 11:54:43;;;;;;;20.93;14.37;;;;;;;6.49;59.51;96929.63;6123175;29;20192;-73
2021/11/25 11:57:45;;;;;;;18.73;13.53;;;;;;;6.74;58.96;96932.03;6123460;29;20278;-69
2021/11/25 12:00:49;;;;;;;17.30;12.93;;;;;;;6.86;59.33;96931.09;6122592;29;20192;-69
2021/11/25 12:04:15;;;;;;;22.27;15.23;;;;;;;7.08;58.63;96918.94;6108928;29;20644;-69
2021/11/25 12:07:25;;;;;;;20.07;14.70;;;;;;;7.08;58.97;96911.06;6123189;29;20567;-69
2021/11/25 12:10:59;;;;;;;20.43;14.80;;;;;;;7.39;58.95;96923.41;6122933;29;20711;-69
2021/11/25 12:14:05;;;;;;;21.47;15.30;;;;;;;7.08;58.46;96922.41;6123256;29;20199;-69
2021/11/25 12:17:11;;;;;;;21.47;15.60;;;;;;;7.04;59.37;96911.31;6122763;29;20223;-69
2021/11/25 12:20:25;;;;;;;20.10;14.23;;;;;;;7.28;58.95;96913.78;6122021;29;20295;-69
2021/11/25 12:23:38;;;;;;;21.87;16.30;;;;;;;6.64;59.48;96910.09;6121784;29;20250;-69
2021/11/25 12:27:02;;;;;;;21.23;15.00;;;;;;;6.83;59.88;96904.28;6122662;29;20537;-69
2021/11/25 12:30:12;;;;;;;22.33;15.50;;;;;;;7.17;59.74;96897.22;6123042;29;20203;-69
2021/11/25 12:33:39;;;;;;;23.90;17.20;;;;;;;7.30;58.74;96887.41;6122133;29;20809;-70
2021/11/25 12:36:41;;;;;;;23.77;16.77;;;;;;;6.93;59.71;96885.06;6122972;29;20196;-69
2021/11/25 12:39:43;;;;;;;22.77;16.87;;;;;;;7.34;59.55;96884.44;6122481;29;20699;-69
2021/11/25 12:42:47;;;;;;;20.67;16.00;;;;;;;8.11;56.98;96879.81;6122544;29;20291;-69
2021/11/25 12:45:53;;;;;;;23.03;16.17;;;;;;;9.00;53.52;96867.03;6122956;29;21124;-69
2021/11/25 12:48:56;;;;;;;21.27;16.03;;;;;;;9.89;52.12;96871.34;6121187;29;20273;-69
2021/11/25 12:51:58;;;;;;;22.50;15.63;;;;;;;10.57;49.27;96873.00;6122251;29;20253;-69
2021/11/25 12:55:09;;;;;;;23.67;17.20;;;;;;;9.87;49.95;96862.78;6121016;29;20200;-69
2021/11/25 12:58:11;;;;;;;24.40;16.60;;;;;;;7.52;56.22;96876.84;6121172;29;20586;-69
2021/11/25 13:01:20;;;;;;;23.10;17.77;;;;;;;6.31;59.95;96876.81;6121936;29;20970;-69
2021/11/25 13:04:26;;;;;;;20.47;15.57;;;;;;;6.03;61.13;96870.22;6122877;29;20199;-69
2021/11/25 13:11:01;;;;;;;21.67;15.13;;;;;;;5.51;62.05;96865.34;6744309;23;20238;-78
2021/11/25 13:14:08;;;;;;;22.63;15.53;;;;;;;5.33;63.15;96853.59;6168208;28;20222;-77
2021/11/25 13:17:10;;;;;;;19.47;14.87;;;;;;;5.15;64.23;96848.75;6169788;28;20285;-78
2021/11/25 13:20:13;;;;;;;21.50;15.80;;;;;;;4.99;64.38;96857.81;6170746;28;20198;-77
2021/11/25 13:23:19;;;;;;;21.13;15.67;;;;;;;4.86;65.23;96855.22;6169067;28;20205;-78
2021/11/25 13:26:21;;;;;;;25.23;16.47;;;;;;;4.77;65.21;96850.66;6169699;28;20198;-78
2021/11/25 13:29:35;;;;;;;18.93;14.27;;;;;;;4.76;65.87;96857.66;6182843;28;20217;-77
2021/11/25 13:32:39;;;;;;;25.20;16.13;;;;;;;4.64;66.03;96855.06;6164186;28;20744;-78
2021/11/25 13:35:42;;;;;;;21.70;15.23;;;;;;;4.56;66.71;96844.31;6162822;28;20209;-78
2021/11/25 13:38:50;;;;;;;19.73;15.07;;;;;;;4.52;66.27;96854.13;6168965;28;20701;-77
2021/11/25 13:42:14;;;;;;;24.13;17.33;;;;;;;4.42;66.75;96853.94;6170290;28;20284;-78
2021/11/25 13:45:22;;;;;;;25.43;17.57;;;;;;;4.35;67.47;96857.09;6171392;28;20653;-78
2021/11/25 13:48:24;;;;;;;31.87;18.30;;;;;;;4.26;67.66;96855.94;6189718;28;20598;-77
2021/11/25 13:51:27;;;;;;;23.40;15.10;;;;;;;4.20;68.04;96852.88;6156797;28;20204;-77
2021/11/25 13:54:29;;;;;;;24.60;16.47;;;;;;;4.07;69.09;96853.75;6174830;28;20569;-78
2021/11/25 13:57:31;;;;;;;25.33;17.60;;;;;;;3.92;69.68;96839.09;6173608;28;20206;-78
2021/11/25 14:00:36;;;;;;;22.13;16.47;;;;;;;3.87;69.42;96840.34;6172667;28;20197;-78
2021/11/25 14:03:44;;;;;;;22.70;16.37;;;;;;;3.80;69.77;96847.75;6173041;28;20289;-78
2021/11/25 14:06:46;;;;;;;22.77;15.37;;;;;;;3.71;69.32;96846.59;6174885;28;20271;-78
2021/11/25 14:09:48;;;;;;;24.63;16.80;;;;;;;3.57;70.03;96844.06;6156265;28;20778;-78
2021/11/25 14:12:52;;;;;;;27.37;16.40;;;;;;;3.36;70.84;96848.06;6126376;28;20551;-80
2021/11/25 14:15:54;;;;;;;25.23;16.63;;;;;;;3.09;71.71;96849.84;6163585;28;20204;-78
2021/11/25 14:19:12;;;;;;;19.80;13.73;;;;;;;2.80;72.31;96847.28;6158734;28;20202;-78
2021/11/25 14:22:24;;;;;;;23.00;15.30;;;;;;;2.61;73.07;96851.97;6164512;28;20197;-77
2021/11/25 14:25:35;;;;;;;23.47;15.77;;;;;;;2.48;72.92;96848.47;6173047;28;20320;-78
2021/11/25 14:31:58;;;;;;;20.47;14.10;;;;;;;2.16;73.91;96853.03;6163615;28;20684;-77